Time;durP1;ratioP1;P1;durP2;ratioP2;P2;SDS_P1;SDS_P2;PMS_P1;PMS_P2;Temp;Humidity;BMP_temperature;BMP_pressure;BME280_temperature;BME280_humidity;BME280_pressure;Samples;Min_cycle;Max_cycle;Signal;HPM_P1;HPM_P2
2022/11/27 00:01:35;;;;;;;7.10;5.17;;;7.70;1.00;;;;;;5076259;28;20421;-82
2022/11/27 00:07:22;;;;;;;31.33;6.27;;;7.80;1.00;;;;;;5079178;28;20416;-87
2022/11/27 00:09:50;;;;;;;8.67;4.90;;;7.80;1.00;;;;;;5086748;28;20429;-87
2022/11/27 00:15:37;;;;;;;7.80;5.07;;;7.80;1.00;;;;;;5089956;28;20424;-87
2022/11/27 00:28:43;;;;;;;13.57;4.83;;;7.80;1.00;;;;;;5082218;28;20444;-87
2022/11/27 00:34:38;;;;;;;13.67;5.50;;;7.70;1.00;;;;;;5080798;28;20454;-83
2022/11/27 00:40:25;;;;;;;12.50;5.10;;;7.60;1.00;;;;;;5075747;28;20922;-82
2022/11/27 00:43:14;;;;;;;7.17;5.03;;;7.70;1.00;;;;;;5081151;28;20453;-82
2022/11/27 00:45:50;;;;;;;9.93;5.07;;;7.70;1.00;;;;;;5088977;28;20173;-83
2022/11/27 00:51:38;;;;;;;10.03;5.27;;;7.70;1.00;;;;;;5085937;28;20420;-82
2022/11/27 00:57:26;;;;;;;11.30;5.80;;;7.70;1.00;;;;;;5093051;28;20454;-82
2022/11/27 01:00:43;;;;;;;15.47;6.97;;;7.70;1.00;;;;;;5091592;28;21880;-82
2022/11/27 01:06:31;;;;;;;11.83;5.83;;;7.60;1.00;;;;;;5075612;28;20377;-82
2022/11/27 01:12:19;;;;;;;9.17;4.87;;;7.70;1.00;;;;;;5093564;28;20391;-82
2022/11/27 01:18:26;;;;;;;13.30;5.27;;;7.70;1.00;;;;;;5074592;28;20205;-82
2022/11/27 01:24:15;;;;;;;18.20;5.43;;;7.70;1.00;;;;;;5076843;28;20416;-87
2022/11/27 01:36:46;;;;;;;10.70;5.10;;;7.70;1.00;;;;;;5084139;28;20399;-83
2022/11/27 01:40:01;;;;;;;8.50;5.00;;;7.70;1.00;;;;;;5078543;28;20504;-82
2022/11/27 01:45:49;;;;;;;22.27;5.23;;;7.60;1.00;;;;;;5077821;28;20441;-82
2022/11/27 01:48:20;;;;;;;7.13;4.93;;;7.50;1.00;;;;;;5086831;28;20425;-82
2022/11/27 01:54:09;;;;;;;8.17;4.50;;;7.50;1.00;;;;;;5076514;28;20413;-87
2022/11/27 01:56:35;;;;;;;10.63;4.63;;;7.40;1.00;;;;;;5073606;28;20410;-87
2022/11/27 02:02:23;;;;;;;15.13;4.60;;;7.10;1.00;;;;;;5090743;28;20475;-88
2022/11/27 02:05:02;;;;;;;11.77;5.17;;;6.90;1.00;;;;;;5080966;28;20428;-88
2022/11/27 02:08:13;;;;;;;8.00;4.97;;;6.70;1.00;;;;;;5074626;28;20178;-83
2022/11/27 02:11:17;;;;;;;10.47;4.63;;;6.60;1.00;;;;;;5074210;28;20439;-82
2022/11/27 02:14:26;;;;;;;9.20;5.20;;;6.40;1.00;;;;;;5076738;28;20425;-82
2022/11/27 02:17:21;;;;;;;11.47;4.70;;;6.20;1.00;;;;;;5077784;28;20451;-83
2022/11/27 02:20:32;;;;;;;8.00;5.30;;;6.00;1.00;;;;;;5080780;28;20437;-83
2022/11/27 02:23:05;;;;;;;10.43;5.97;;;5.90;1.00;;;;;;5073530;28;20445;-87
2022/11/27 02:29:03;;;;;;;14.47;6.10;;;5.70;1.00;;;;;;5077173;28;20408;-88
2022/11/27 02:32:00;;;;;;;12.60;5.83;;;5.50;1.00;;;;;;5073463;28;20913;-88
2022/11/27 02:38:32;;;;;;;15.83;6.10;;;5.30;1.00;;;;;;5086498;28;20773;-87
2022/11/27 02:44:22;;;;;;;13.40;6.27;;;5.10;1.00;;;;;;5081290;28;20476;-87
2022/11/27 02:53:43;;;;;;;12.97;6.70;;;4.80;1.00;;;;;;5086239;28;20442;-88
2022/11/27 02:57:04;;;;;;;21.63;7.40;;;4.70;1.00;;;;;;5072971;28;20397;-87
2022/11/27 03:00:03;;;;;;;10.20;6.30;;;4.60;1.00;;;;;;5073821;28;20439;-88
2022/11/27 03:06:28;;;;;;;13.00;7.20;;;4.40;1.00;;;;;;5084791;28;20458;-83
2022/11/27 03:16:04;;;;;;;16.67;7.33;;;4.10;1.00;;;;;;5087234;28;20420;-88
2022/11/27 03:19:16;;;;;;;19.03;7.40;;;4.00;1.00;;;;;;5086341;28;20441;-87
2022/11/27 03:21:57;;;;;;;16.30;7.10;;;4.00;1.00;;;;;;5075814;28;20777;-84
2022/11/27 03:24:38;;;;;;;10.63;6.90;;;3.90;1.00;;;;;;5071995;28;20416;-82
2022/11/27 03:27:28;;;;;;;15.25;6.55;;;3.90;1.00;;;;;;5071872;28;20496;-83
2022/11/27 03:30:08;;;;;;;19.57;6.97;;;3.80;1.00;;;;;;5076459;28;20175;-83
2022/11/27 03:32:38;;;;;;;15.48;7.20;;;3.80;1.00;;;;;;5092197;28;20401;-83
2022/11/27 03:35:32;;;;;;;15.63;8.00;;;3.70;1.00;;;;;;5087841;28;20183;-83
2022/11/27 03:41:47;;;;;;;23.65;7.93;;;3.50;1.00;;;;;;5079233;28;20500;-86
2022/11/27 03:48:08;;;;;;;15.80;8.00;;;3.40;1.00;;;;;;5094293;28;20158;-88
2022/11/27 03:51:15;;;;;;;16.90;10.18;;;3.40;1.00;;;;;;4978101;28;20248;-88
2022/11/27 03:54:04;;;;;;;19.48;8.20;;;3.30;1.00;;;;;;4991612;28;20204;-83
2022/11/27 03:57:14;;;;;;;23.52;8.15;;;3.20;1.00;;;;;;5005793;28;20235;-83
2022/11/27 04:00:25;;;;;;;20.00;8.15;;;3.20;1.00;;;;;;5011186;28;20268;-83
2022/11/27 04:03:38;;;;;;;15.60;8.20;;;3.10;1.00;;;;;;4995027;28;20287;-83
2022/11/27 04:06:23;;;;;;;13.65;7.35;;;3.10;1.00;;;;;;4991619;28;20178;-83
2022/11/27 04:09:03;;;;;;;11.82;6.95;;;3.00;1.00;;;;;;5009972;28;20185;-83
2022/11/27 04:12:08;;;;;;;10.75;7.10;;;3.10;1.00;;;;;;4995159;28;20173;-83
2022/11/27 04:17:55;;;;;;;14.70;8.10;;;2.90;1.00;;;;;;5014529;28;20207;-83
2022/11/27 04:20:44;;;;;;;17.20;8.77;;;2.90;1.20;;;;;;4994750;28;20220;-83
2022/11/27 04:26:32;;;;;;;17.17;7.50;;;2.90;3.50;;;;;;5012662;28;20718;-84
2022/11/27 04:29:14;;;;;;;20.60;9.57;;;2.80;3.60;;;;;;5081345;28;20716;-83
2022/11/27 04:32:08;;;;;;;17.15;8.95;;;2.80;3.60;;;;;;5094630;28;20171;-83
2022/11/27 04:34:56;;;;;;;17.33;7.65;;;2.70;5.10;;;;;;5081296;28;20178;-83
2022/11/27 04:37:26;;;;;;;14.73;8.25;;;2.80;6.00;;;;;;5091759;28;20324;-88
2022/11/27 04:40:04;;;;;;;23.75;9.15;;;2.70;5.20;;;;;;5086523;28;20203;-87
2022/11/27 04:49:20;;;;;;;23.70;9.98;;;2.70;7.50;;;;;;5077368;28;20188;-87
2022/11/27 05:08:35;;;;;;;34.70;11.60;;;2.50;11.40;;;;;;5081410;28;20189;-84
2022/11/27 05:11:44;;;;;;;26.17;11.30;;;2.50;12.80;;;;;;5084575;28;20167;-82
2022/11/27 05:14:15;;;;;;;25.23;11.15;;;2.50;12.30;;;;;;5073940;28;20179;-82
2022/11/27 05:16:52;;;;;;;24.10;11.38;;;2.50;12.10;;;;;;5088800;28;20228;-82
2022/11/27 05:20:02;;;;;;;26.77;11.25;;;2.40;14.80;;;;;;5075167;28;20187;-82
2022/11/27 05:22:32;;;;;;;32.30;11.50;;;2.40;12.10;;;;;;5093729;28;20222;-83
2022/11/27 05:25:38;;;;;;;29.02;10.50;;;2.40;12.50;;;;;;5074979;28;20552;-82
2022/11/27 05:28:32;;;;;;;25.35;10.95;;;2.30;12.40;;;;;;5080355;28;20201;-83
2022/11/27 05:31:02;;;;;;;22.40;10.98;;;2.30;11.00;;;;;;5094945;28;20211;-82
2022/11/27 05:33:38;;;;;;;18.95;10.15;;;2.20;11.10;;;;;;5094900;28;20241;-83
2022/11/27 05:36:08;;;;;;;22.85;10.40;;;2.10;9.90;;;;;;5084176;28;20174;-83
2022/11/27 05:38:56;;;;;;;29.50;9.82;;;2.10;14.80;;;;;;5078207;28;20178;-84
2022/11/27 05:41:22;;;;;;;22.95;9.80;;;2.10;10.60;;;;;;5076239;28;20207;-82
2022/11/27 05:44:37;;;;;;;28.38;11.32;;;2.10;8.00;;;;;;5074577;28;20293;-82
2022/11/27 05:50:25;;;;;;;25.88;10.95;;;2.00;9.70;;;;;;5074208;28;20158;-82
2022/11/27 05:53:08;;;;;;;22.93;11.10;;;2.10;11.60;;;;;;5074794;28;20179;-84
2022/11/27 05:55:34;;;;;;;37.25;11.32;;;2.10;10.10;;;;;;5074195;28;20667;-83
2022/11/27 05:58:26;;;;;;;27.50;11.07;;;2.10;12.20;;;;;;5072839;28;20274;-83
2022/11/27 06:01:03;;;;;;;20.27;11.30;;;2.10;13.10;;;;;;5077987;28;20186;-84
2022/11/27 06:03:38;;;;;;;31.90;11.98;;;2.10;13.20;;;;;;5084552;28;20189;-83
2022/11/27 06:06:37;;;;;;;23.25;11.60;;;2.20;13.80;;;;;;5089627;28;20208;-82
2022/11/27 06:09:03;;;;;;;26.25;11.45;;;2.20;12.80;;;;;;5087589;28;20192;-88
2022/11/27 06:11:38;;;;;;;28.03;12.30;;;2.20;16.70;;;;;;5084626;28;20270;-88
2022/11/27 06:17:25;;;;;;;23.77;11.00;;;2.30;13.90;;;;;;5079186;28;20679;-88
2022/11/27 06:23:26;;;;;;;22.10;11.18;;;2.40;16.00;;;;;;5075485;28;20206;-84
2022/11/27 06:26:26;;;;;;;20.40;10.40;;;2.40;15.90;;;;;;5073851;28;20171;-83
2022/11/27 06:29:14;;;;;;;22.33;11.30;;;2.40;16.40;;;;;;5028518;28;20269;-83
2022/11/27 06:32:02;;;;;;;22.92;10.50;;;2.50;16.10;;;;;;5031756;28;20184;-83
2022/11/27 06:37:59;;;;;;;23.70;10.70;;;2.40;11.40;;;;;;5051804;28;20210;-83
2022/11/27 06:43:46;;;;;;;23.42;10.85;;;2.40;8.60;;;;;;5051378;28;20724;-83
2022/11/27 06:46:21;;;;;;;19.05;10.77;;;2.30;9.40;;;;;;5051331;28;20187;-83
2022/11/27 06:49:26;;;;;;;21.98;9.43;;;2.40;11.00;;;;;;5051416;28;20180;-84
2022/11/27 06:52:14;;;;;;;18.50;9.80;;;2.40;6.60;;;;;;5028378;28;20190;-82
2022/11/27 06:54:44;;;;;;;29.15;10.77;;;2.30;4.90;;;;;;5034929;28;20175;-82
2022/11/27 06:57:38;;;;;;;21.40;10.95;;;2.30;5.30;;;;;;5034466;28;20237;-83
2022/11/27 07:00:26;;;;;;;23.40;11.10;;;2.20;5.90;;;;;;5032698;28;20692;-82
2022/11/27 07:02:57;;;;;;;21.55;11.20;;;2.20;6.90;;;;;;5027738;28;20235;-83
2022/11/27 07:05:38;;;;;;;24.08;10.85;;;2.20;6.60;;;;;;5055016;28;20175;-83
2022/11/27 07:11:28;;;;;;;25.13;11.45;;;2.30;4.10;;;;;;5073068;28;20232;-83
2022/11/27 07:17:16;;;;;;;28.30;11.50;;;2.30;3.60;;;;;;5073818;28;20554;-83
2022/11/27 07:19:45;;;;;;;27.90;11.73;;;2.30;5.40;;;;;;5081533;28;20174;-83
2022/11/27 07:22:15;;;;;;;21.40;12.02;;;2.40;5.70;;;;;;5079775;28;20170;-83
2022/11/27 07:28:02;;;;;;;21.80;11.35;;;2.50;4.50;;;;;;5083435;28;20206;-81
2022/11/27 07:37:11;;;;;;;25.63;11.55;;;2.60;3.70;;;;;;5085071;28;20174;-81
2022/11/27 07:43:15;;;;;;;29.88;12.73;;;2.80;8.30;;;;;;5077059;28;20206;-83
2022/11/27 07:45:45;;;;;;;26.15;11.80;;;2.80;10.20;;;;;;5086864;28;20174;-83
2022/11/27 07:48:15;;;;;;;22.13;11.10;;;2.90;11.70;;;;;;5096975;28;20618;-83
2022/11/27 07:50:50;;;;;;;26.10;12.15;;;3.00;11.10;;;;;;5096388;28;20166;-83
2022/11/27 07:53:56;;;;;;;26.30;11.45;;;3.00;11.80;;;;;;5076606;28;20618;-83
2022/11/27 07:59:43;;;;;;;29.15;12.80;;;3.30;14.60;;;;;;5076810;28;20512;-83
2022/11/27 08:02:15;;;;;;;33.37;12.20;;;3.50;9.40;;;;;;5085445;28;20183;-83
2022/11/27 08:04:40;;;;;;;48.35;12.45;;;3.60;7.60;;;;;;5083997;28;20166;-83
2022/11/27 08:10:28;;;;;;;31.75;12.88;;;3.90;7.70;;;;;;5081084;28;20197;-83
2022/11/27 08:12:54;;;;;;;27.60;12.10;;;4.00;5.20;;;;;;5087686;28;20641;-84
2022/11/27 08:15:21;;;;;;;29.57;12.00;;;4.10;6.50;;;;;;5088675;28;20421;-83
2022/11/27 08:17:46;;;;;;;60.53;12.17;;;4.20;5.90;;;;;;5092666;28;20712;-83
2022/11/27 08:20:21;;;;;;;30.03;11.30;;;4.30;2.40;;;;;;5080644;28;20496;-83
2022/11/27 08:22:47;;;;;;;57.43;12.10;;;4.40;1.00;;;;;;5082189;28;20194;-82
2022/11/27 08:25:27;;;;;;;36.00;10.10;;;4.40;1.00;;;;;;5076901;28;20496;-85
2022/11/27 08:28:26;;;;;;;33.17;10.00;;;4.50;1.00;;;;;;5076482;28;20420;-85
2022/11/27 08:31:04;;;;;;;31.40;10.70;;;4.60;1.00;;;;;;5082469;28;20409;-85
2022/11/27 08:33:39;;;;;;;41.05;11.45;;;4.70;1.00;;;;;;5096356;28;20416;-84
2022/11/27 08:39:27;;;;;;;39.50;11.87;;;4.90;1.00;;;;;;5076323;28;20401;-89
2022/11/27 08:42:26;;;;;;;32.10;12.53;;;4.90;1.00;;;;;;5089520;28;20417;-88
2022/11/27 08:48:33;;;;;;;21.47;10.17;;;5.30;1.00;;;;;;5086896;28;20396;-87
2022/11/27 08:54:20;;;;;;;17.10;10.60;;;5.40;1.00;;;;;;5096452;28;20380;-94
2022/11/27 08:56:46;;;;;;;16.90;9.80;;;5.50;1.00;;;;;;5085536;28;20413;-95
2022/11/27 09:05:55;;;;;;;23.73;10.33;;;5.60;1.00;;;;;;5077513;28;20443;-89
2022/11/27 09:08:27;;;;;;;14.23;9.47;;;5.60;1.00;;;;;;5078919;28;20437;-84
2022/11/27 09:18:32;;;;;;;16.80;10.03;;;5.70;1.00;;;;;;5083530;28;20475;-86
2022/11/27 09:21:08;;;;;;;19.03;9.87;;;5.80;1.00;;;;;;5078725;28;20528;-86
2022/11/27 09:24:20;;;;;;;19.27;10.00;;;5.90;1.00;;;;;;5075687;28;20444;-85
2022/11/27 09:26:46;;;;;;;18.63;9.60;;;6.00;1.00;;;;;;5074574;28;20394;-86
2022/11/27 09:29:44;;;;;;;14.57;9.03;;;6.10;1.00;;;;;;5074548;28;20390;-85
2022/11/27 09:32:27;;;;;;;20.43;9.93;;;6.10;1.00;;;;;;5081122;28;20257;-86
2022/11/27 09:35:03;;;;;;;21.13;10.10;;;6.10;1.00;;;;;;5080886;28;20413;-85
2022/11/27 09:38:02;;;;;;;15.90;10.00;;;6.20;1.00;;;;;;5083185;28;20936;-86
2022/11/27 09:41:04;;;;;;;17.43;10.73;;;6.40;1.00;;;;;;5082127;28;20415;-85
2022/11/27 09:50:34;;;;;;;16.47;9.27;;;6.70;1.00;;;;;;5013128;28;20394;-86
2022/11/27 09:56:22;;;;;;;17.80;9.97;;;7.00;1.00;;;;;;5007850;28;20424;-86
2022/11/27 09:59:32;;;;;;;15.97;9.30;;;7.00;1.00;;;;;;4987493;28;20901;-86
2022/11/27 10:01:58;;;;;;;15.27;8.07;;;7.10;1.00;;;;;;4997045;28;20419;-86
2022/11/27 10:05:03;;;;;;;14.17;7.97;;;7.20;1.00;;;;;;4996750;28;20459;-86
2022/11/27 10:11:26;;;;;;;15.60;7.60;;;7.30;1.00;;;;;;5013431;28;20962;-86
2022/11/27 10:17:27;;;;;;;11.53;8.40;;;7.50;1.00;;;;;;5003865;28;20400;-85
2022/11/27 10:23:40;;;;;;;14.10;7.53;;;7.80;1.00;;;;;;5087717;28;20459;-86
2022/11/27 10:26:29;;;;;;;10.83;6.40;;;8.00;1.00;;;;;;5090209;28;20405;-88
2022/11/27 10:32:39;;;;;;;16.83;6.60;;;8.40;1.00;;;;;;5080578;28;20772;-85
2022/11/27 10:42:01;;;;;;;10.27;6.63;;;9.00;1.00;;;;;;5075728;28;20431;-84
2022/11/27 10:48:33;;;;;;;10.97;6.30;;;8.90;1.00;;;;;;5090569;28;20419;-84
2022/11/27 10:54:36;;;;;;;10.93;5.90;;;9.30;1.00;;;;;;5078898;28;20387;-84
2022/11/27 11:00:27;;;;;;;11.97;5.27;;;9.60;1.00;;;;;;5076777;28;20923;-84
2022/11/27 11:03:16;;;;;;;7.90;5.70;;;9.70;1.00;;;;;;5081202;28;20449;-84
2022/11/27 11:06:38;;;;;;;8.50;5.57;;;9.80;1.00;;;;;;5073672;28;20783;-84
2022/11/27 11:09:56;;;;;;;11.60;5.73;;;9.80;1.00;;;;;;5077773;28;20524;-84
2022/11/27 11:12:33;;;;;;;9.30;5.20;;;9.90;1.00;;;;;;5078088;28;20398;-85
2022/11/27 11:15:27;;;;;;;9.60;6.03;;;9.90;1.00;;;;;;5077589;28;20432;-85
2022/11/27 11:17:52;;;;;;;9.73;6.17;;;10.00;1.00;;;;;;5084228;28;20409;-84
2022/11/27 11:21:03;;;;;;;9.73;6.57;;;10.00;1.00;;;;;;5083991;28;20425;-84
2022/11/27 11:23:59;;;;;;;10.60;6.23;;;10.00;1.00;;;;;;5095638;28;20695;-83
2022/11/27 11:26:48;;;;;;;8.00;5.60;;;10.00;1.00;;;;;;5086898;28;20408;-89
2022/11/27 11:29:58;;;;;;;9.97;4.93;;;10.10;1.00;;;;;;5083813;28;20443;-88
2022/11/27 11:36:26;;;;;;;7.43;3.90;;;10.20;1.00;;;;;;5077376;28;20906;-89
2022/11/27 11:49:23;;;;;;;9.13;3.50;;;10.50;1.00;;;;;;5079058;28;20480;-89
2022/11/27 11:51:49;;;;;;;4.90;3.57;;;10.40;1.00;;;;;;5076684;28;20435;-89
2022/11/27 11:58:19;;;;;;;14.10;3.70;;;10.60;1.00;;;;;;5088061;28;20549;-89
2022/11/27 12:01:15;;;;;;;5.07;3.40;;;10.70;1.00;;;;;;5088349;28;20414;-89
2022/11/27 12:07:35;;;;;;;7.13;3.80;;;10.90;1.00;;;;;;5084956;28;20495;-89
2022/11/27 12:13:45;;;;;;;3.77;3.13;;;11.00;1.00;;;;;;5081060;28;20464;-89
2022/11/27 12:16:35;;;;;;;5.40;3.30;;;11.10;1.00;;;;;;5092719;28;20465;-89
2022/11/27 12:22:55;;;;;;;6.70;3.40;;;11.20;1.00;;;;;;5089589;28;20423;-89
2022/11/27 12:26:15;;;;;;;13.60;3.47;;;11.30;1.00;;;;;;5090710;28;20420;-89
2022/11/27 12:29:20;;;;;;;6.93;3.30;;;11.60;1.00;;;;;;5079718;28;20500;-83
2022/11/27 12:32:25;;;;;;;4.17;3.33;;;11.80;1.00;;;;;;5081046;28;20425;-83
2022/11/27 12:35:19;;;;;;;7.27;3.63;;;11.80;1.00;;;;;;5082911;28;20451;-82
2022/11/27 12:38:28;;;;;;;4.40;2.97;;;11.80;1.00;;;;;;5086202;28;20733;-82
2022/11/27 12:44:31;;;;;;;3.83;3.10;;;11.60;1.00;;;;;;5079808;28;20536;-85
2022/11/27 12:47:08;;;;;;;5.87;3.23;;;11.50;1.00;;;;;;5088340;28;21184;-83
2022/11/27 12:53:22;;;;;;;7.83;3.63;;;11.50;1.00;;;;;;5075511;28;20378;-85
2022/11/27 12:59:33;;;;;;;3.87;2.67;;;11.50;1.00;;;;;;5084407;28;20418;-87
2022/11/27 13:02:52;;;;;;;6.70;3.00;;;11.60;1.00;;;;;;5079789;28;20440;-88
2022/11/27 13:05:51;;;;;;;7.77;3.30;;;11.60;1.00;;;;;;5079336;28;20553;-88
2022/11/27 13:08:42;;;;;;;5.20;3.37;;;11.60;1.00;;;;;;5082101;28;20436;-91
2022/11/27 13:11:33;;;;;;;6.53;3.20;;;11.60;1.00;;;;;;5088886;28;21019;-91
2022/11/27 13:14:32;;;;;;;6.17;3.67;;;11.50;1.00;;;;;;5085397;28;20508;-92
2022/11/27 13:17:52;;;;;;;4.50;3.37;;;11.60;1.00;;;;;;4985562;28;20428;-91
2022/11/27 13:27:09;;;;;;;8.17;3.97;;;11.60;1.00;;;;;;5014715;28;20820;-87
2022/11/27 13:29:53;;;;;;;6.63;3.43;;;11.60;1.00;;;;;;4994103;28;20416;-85
2022/11/27 13:32:25;;;;;;;6.43;3.33;;;11.60;1.00;;;;;;5006623;28;20834;-87
2022/11/27 13:34:54;;;;;;;5.73;3.27;;;11.60;1.00;;;;;;5002707;28;21057;-88
2022/11/27 13:37:56;;;;;;;3.17;2.87;;;11.60;1.00;;;;;;5004075;28;20424;-87
2022/11/27 13:40:43;;;;;;;4.00;3.00;;;11.70;1.00;;;;;;4996838;28;20450;-88
2022/11/27 13:43:39;;;;;;;5.60;2.80;;;11.80;1.00;;;;;;4997320;28;20998;-88
2022/11/27 13:46:27;;;;;;;3.33;2.93;;;11.80;1.00;;;;;;4984554;28;20420;-88
2022/11/27 13:49:25;;;;;;;6.00;3.30;;;11.80;1.00;;;;;;4994342;28;20520;-89
2022/11/27 13:52:23;;;;;;;4.93;2.80;;;11.70;1.00;;;;;;4994004;28;20451;-88
2022/11/27 13:58:39;;;;;;;3.30;2.80;;;11.60;1.00;;;;;;5088860;28;20462;-90
2022/11/27 14:04:52;;;;;;;3.90;3.00;;;11.30;1.00;;;;;;5075360;28;20541;-89
2022/11/27 14:07:23;;;;;;;10.80;3.50;;;11.20;1.00;;;;;;5075841;28;20482;-87
2022/11/27 14:09:53;;;;;;;4.40;3.20;;;11.10;1.00;;;;;;5086833;28;20431;-89
2022/11/27 14:12:29;;;;;;;5.80;3.77;;;11.10;1.00;;;;;;5074480;28;20421;-76
2022/11/27 14:15:22;;;;;;;4.40;3.23;;;11.10;1.00;;;;;;5084821;28;20412;-76
2022/11/27 14:17:50;;;;;;;4.23;3.10;;;10.90;1.00;;;;;;5087618;28;20417;-76
2022/11/27 14:20:16;;;;;;;4.40;3.40;;;10.80;1.00;;;;;;5073720;28;20985;-76
2022/11/27 14:22:43;;;;;;;6.80;3.33;;;10.80;1.00;;;;;;5075031;28;20480;-76
2022/11/27 14:25:35;;;;;;;6.03;3.27;;;10.70;1.00;;;;;;5074812;28;20179;-76
2022/11/27 14:28:20;;;;;;;3.43;3.10;;;10.50;1.00;;;;;;5072504;28;20499;-79
2022/11/27 14:30:55;;;;;;;5.67;3.43;;;10.50;1.00;;;;;;5074389;28;20413;-80
2022/11/27 14:33:30;;;;;;;4.00;3.17;;;10.40;1.00;;;;;;5074794;28;20405;-80
2022/11/27 14:35:58;;;;;;;5.37;3.13;;;10.30;1.00;;;;;;5074849;28;20462;-79
2022/11/27 14:38:31;;;;;;;4.13;3.40;;;10.20;1.00;;;;;;5079811;28;20496;-80
2022/11/27 14:41:33;;;;;;;6.27;3.60;;;10.10;1.00;;;;;;5087032;28;20785;-80
2022/11/27 14:44:05;;;;;;;4.00;3.60;;;10.00;1.00;;;;;;5088466;28;20535;-75
2022/11/27 14:46:34;;;;;;;5.27;3.50;;;9.90;1.00;;;;;;5081716;28;20411;-75
2022/11/27 14:49:20;;;;;;;5.20;3.20;;;9.80;1.00;;;;;;5093098;28;20404;-75
2022/11/27 14:51:53;;;;;;;6.33;3.50;;;9.80;1.00;;;;;;5078334;28;20428;-75
2022/11/27 14:54:31;;;;;;;5.40;3.40;;;9.70;1.00;;;;;;5083204;28;20826;-76
2022/11/27 14:56:57;;;;;;;4.63;3.73;;;9.60;1.00;;;;;;5080662;28;20967;-75
2022/11/27 14:59:40;;;;;;;7.13;3.80;;;9.50;1.00;;;;;;5084541;28;20412;-80
2022/11/27 15:02:25;;;;;;;8.33;3.20;;;9.50;1.00;;;;;;5087119;28;20771;-80
2022/11/27 15:05:04;;;;;;;8.00;3.27;;;9.40;1.00;;;;;;5075645;28;20431;-80
2022/11/27 15:07:32;;;;;;;5.53;2.97;;;9.40;1.00;;;;;;5091649;28;20420;-80
2022/11/27 15:10:00;;;;;;;7.67;4.57;;;9.40;1.00;;;;;;5093331;28;20416;-80
2022/11/27 15:12:32;;;;;;;8.63;3.87;;;9.30;1.00;;;;;;5082256;28;20398;-80
2022/11/27 15:15:05;;;;;;;4.20;3.60;;;9.10;1.00;;;;;;5074710;28;20915;-79
2022/11/27 15:17:44;;;;;;;6.33;4.20;;;9.10;1.00;;;;;;5083987;28;20471;-80
2022/11/27 15:20:23;;;;;;;5.60;3.80;;;9.10;1.00;;;;;;5086450;28;20451;-80
2022/11/27 15:23:00;;;;;;;5.80;3.87;;;9.10;1.00;;;;;;5075759;28;20464;-80
2022/11/27 15:25:42;;;;;;;4.97;3.33;;;8.90;1.00;;;;;;5078830;28;20474;-80
2022/11/27 15:28:28;;;;;;;4.90;3.20;;;8.80;1.00;;;;;;5074848;28;20804;-76
2022/11/27 15:30:58;;;;;;;7.03;3.60;;;8.80;1.00;;;;;;5083164;28;20443;-75
2022/11/27 15:33:32;;;;;;;5.40;3.60;;;8.80;1.00;;;;;;5087271;28;20409;-75
2022/11/27 15:36:20;;;;;;;4.10;3.07;;;8.80;1.00;;;;;;5077341;28;20420;-75
2022/11/27 15:39:20;;;;;;;5.33;3.77;;;8.80;1.00;;;;;;5081617;28;20816;-76
2022/11/27 15:42:08;;;;;;;5.63;4.03;;;8.80;1.00;;;;;;5030651;28;20431;-76
2022/11/27 15:44:56;;;;;;;4.43;3.67;;;8.80;1.00;;;;;;5031085;28;20498;-80
2022/11/27 15:47:29;;;;;;;12.50;4.63;;;8.80;1.00;;;;;;5029344;28;20426;-77
2022/11/27 15:49:56;;;;;;;5.50;3.17;;;8.80;1.00;;;;;;5030882;28;20419;-77
2022/11/27 15:52:40;;;;;;;5.30;3.87;;;8.70;1.00;;;;;;5030603;28;20431;-77
2022/11/27 15:55:16;;;;;;;6.03;4.00;;;8.70;1.00;;;;;;5030823;28;20537;-77
2022/11/27 15:57:46;;;;;;;4.67;3.90;;;8.70;1.00;;;;;;5033834;28;20446;-76
2022/11/27 16:00:27;;;;;;;7.77;4.40;;;8.60;1.00;;;;;;5034682;28;20918;-77
2022/11/27 16:03:10;;;;;;;3.83;3.30;;;8.60;1.00;;;;;;5034276;28;20839;-77
2022/11/27 16:06:01;;;;;;;4.03;3.57;;;8.60;1.00;;;;;;5033973;28;20506;-77
2022/11/27 16:08:26;;;;;;;4.63;3.80;;;8.60;1.00;;;;;;5034228;28;20430;-77
2022/11/27 16:11:07;;;;;;;5.37;4.00;;;8.50;1.00;;;;;;5032339;28;20785;-77
2022/11/27 16:13:33;;;;;;;5.30;3.63;;;8.50;1.00;;;;;;5026391;28;20597;-76
2022/11/27 16:16:05;;;;;;;5.70;4.20;;;8.50;1.00;;;;;;5032009;28;20415;-77
2022/11/27 16:18:31;;;;;;;9.53;3.90;;;8.40;1.00;;;;;;5061929;28;20912;-77
2022/11/27 16:21:05;;;;;;;6.70;4.10;;;8.40;1.00;;;;;;5091721;28;20412;-76
2022/11/27 16:23:40;;;;;;;5.00;3.40;;;8.40;1.00;;;;;;5088097;28;20869;-75
2022/11/27 16:26:09;;;;;;;8.20;5.00;;;8.40;1.00;;;;;;5076180;28;20496;-76
2022/11/27 16:28:40;;;;;;;9.57;5.13;;;8.30;1.00;;;;;;5087943;28;20434;-77
2022/11/27 16:31:12;;;;;;;10.00;5.50;;;8.30;1.00;;;;;;5080998;28;20422;-76
2022/11/27 16:33:38;;;;;;;7.47;4.73;;;8.30;1.00;;;;;;5082209;28;20976;-77
2022/11/27 16:36:13;;;;;;;8.87;5.07;;;8.20;1.00;;;;;;5082564;28;20504;-77
2022/11/27 16:41:59;;;;;;;6.13;4.77;;;8.20;1.00;;;;;;5093230;28;20416;-77
2022/11/27 16:44:27;;;;;;;7.10;5.03;;;8.20;1.00;;;;;;5084326;28;20444;-77
2022/11/27 16:47:27;;;;;;;22.23;5.50;;;8.20;1.00;;;;;;5085079;28;20178;-77
2022/11/27 16:49:57;;;;;;;6.10;4.63;;;8.20;1.00;;;;;;5076445;28;20579;-76
2022/11/27 16:52:39;;;;;;;10.73;5.47;;;8.10;1.00;;;;;;5091565;28;20420;-77
2022/11/27 16:55:15;;;;;;;7.63;5.47;;;8.10;1.00;;;;;;5085153;28;20420;-77
2022/11/27 16:57:46;;;;;;;6.90;5.20;;;8.10;1.00;;;;;;5089487;28;20822;-77
2022/11/27 17:00:13;;;;;;;9.00;6.17;;;8.10;1.00;;;;;;5080842;28;20529;-75
2022/11/27 17:02:39;;;;;;;8.23;5.37;;;8.10;1.00;;;;;;5075488;28;20483;-76
2022/11/27 17:05:05;;;;;;;7.43;5.73;;;8.10;1.00;;;;;;5087718;28;20942;-75
2022/11/27 17:07:34;;;;;;;7.70;5.80;;;8.00;1.00;;;;;;5077787;28;20433;-75
2022/11/27 17:10:00;;;;;;;7.60;5.63;;;8.10;1.00;;;;;;5088382;28;20423;-75
2022/11/27 17:12:28;;;;;;;8.53;5.87;;;8.10;1.00;;;;;;5085998;28;20479;-76
2022/11/27 17:14:53;;;;;;;9.30;6.20;;;8.10;1.00;;;;;;5076419;28;20768;-75
2022/11/27 17:17:22;;;;;;;8.63;5.90;;;8.00;1.00;;;;;;5088507;28;20439;-75
2022/11/27 17:19:48;;;;;;;8.47;5.83;;;8.00;1.00;;;;;;5077102;28;20217;-74
2022/11/27 17:22:16;;;;;;;11.77;6.30;;;8.00;1.00;;;;;;5092862;28;20487;-75
2022/11/27 17:24:41;;;;;;;10.30;5.93;;;8.20;1.00;;;;;;5093213;28;20712;-76
2022/11/27 17:27:22;;;;;;;10.13;6.33;;;8.10;1.00;;;;;;5082417;28;20455;-75
2022/11/27 17:29:58;;;;;;;13.43;6.87;;;8.10;1.00;;;;;;5099646;28;20525;-78
2022/11/27 17:32:40;;;;;;;10.30;6.43;;;8.00;1.00;;;;;;5085881;28;20482;-77
2022/11/27 17:35:22;;;;;;;8.50;6.33;;;8.00;1.00;;;;;;5090469;28;20920;-76
2022/11/27 17:38:15;;;;;;;9.07;6.03;;;8.00;1.00;;;;;;5091985;28;20421;-76
2022/11/27 17:41:07;;;;;;;9.30;6.13;;;7.90;1.00;;;;;;5086966;28;20478;-77
2022/11/27 17:43:46;;;;;;;8.37;4.73;;;7.90;1.00;;;;;;5073540;28;20471;-76
2022/11/27 17:46:48;;;;;;;9.07;6.47;;;7.90;1.00;;;;;;5076895;28;20460;-76
2022/11/27 17:49:14;;;;;;;10.97;6.27;;;7.90;1.00;;;;;;5077991;28;20470;-74
2022/11/27 17:51:46;;;;;;;9.43;6.03;;;7.90;1.00;;;;;;5081555;28;20744;-75
2022/11/27 17:54:12;;;;;;;8.67;6.40;;;7.90;1.00;;;;;;5081335;28;20433;-75
2022/11/27 17:56:38;;;;;;;10.40;5.90;;;7.90;1.00;;;;;;5083349;28;20412;-75
2022/11/27 17:59:04;;;;;;;10.70;5.87;;;7.90;1.00;;;;;;5079128;28;20170;-74
2022/11/27 18:01:40;;;;;;;9.27;5.90;;;7.90;1.00;;;;;;5087557;28;20826;-80
2022/11/27 18:04:10;;;;;;;7.43;5.70;;;7.90;1.00;;;;;;5084152;28;20692;-78
2022/11/27 18:06:38;;;;;;;8.20;5.93;;;7.90;1.00;;;;;;5072535;28;20801;-75
2022/11/27 18:09:16;;;;;;;9.60;6.03;;;7.90;1.00;;;;;;5091168;28;20851;-76
2022/11/27 18:12:15;;;;;;;9.97;6.23;;;7.90;1.00;;;;;;5094149;28;20975;-75
2022/11/27 18:14:52;;;;;;;8.67;5.83;;;7.90;1.00;;;;;;5080132;28;20566;-75
2022/11/27 18:17:20;;;;;;;15.57;6.57;;;7.80;1.00;;;;;;5073751;28;20490;-76
2022/11/27 18:19:58;;;;;;;9.63;5.30;;;7.80;1.00;;;;;;5077403;28;20423;-76
2022/11/27 18:22:24;;;;;;;11.70;5.10;;;7.80;1.00;;;;;;5074216;28;20409;-75
2022/11/27 18:24:50;;;;;;;6.87;5.10;;;7.80;1.00;;;;;;5073833;28;20463;-74
2022/11/27 18:27:16;;;;;;;8.10;5.50;;;7.80;1.00;;;;;;5074518;28;20429;-76
2022/11/27 18:29:46;;;;;;;7.30;5.67;;;7.80;1.00;;;;;;5087314;28;20175;-76
2022/11/27 18:32:22;;;;;;;8.17;5.50;;;7.90;1.00;;;;;;5076384;28;20420;-76
2022/11/27 18:34:53;;;;;;;10.37;5.40;;;7.80;1.00;;;;;;5076478;28;20785;-76
2022/11/27 18:37:22;;;;;;;7.90;5.30;;;7.80;1.00;;;;;;5081368;28;20949;-76
2022/11/27 18:39:52;;;;;;;9.40;6.07;;;7.80;1.00;;;;;;5082975;28;20404;-76
2022/11/27 18:42:22;;;;;;;9.07;6.07;;;7.70;1.00;;;;;;5087279;28;20504;-76
2022/11/27 18:45:04;;;;;;;9.67;5.83;;;7.70;1.00;;;;;;5073763;28;20540;-75
2022/11/27 18:47:34;;;;;;;9.43;6.17;;;7.80;1.00;;;;;;5074714;28;20889;-76
2022/11/27 18:50:02;;;;;;;7.90;5.83;;;7.70;1.00;;;;;;5086955;28;20415;-76
2022/11/27 18:52:28;;;;;;;7.17;5.87;;;7.60;1.00;;;;;;5091644;28;20621;-76
2022/11/27 18:54:54;;;;;;;8.93;5.90;;;7.60;1.00;;;;;;5080327;28;20417;-76
2022/11/27 18:57:20;;;;;;;11.73;6.10;;;7.70;1.00;;;;;;5083214;28;20446;-75
2022/11/27 18:59:45;;;;;;;7.73;5.67;;;7.60;1.00;;;;;;5080636;28;20174;-75
2022/11/27 19:02:12;;;;;;;9.40;6.17;;;7.60;1.00;;;;;;5075614;28;20536;-75